createdAt,value
2018-09-04T00:01:11.871Z,5.4
2018-09-04T00:02:11.808Z,5.4
2018-09-04T00:03:12.064Z,5.0
2018-09-04T00:04:13.021Z,5.5
2018-09-04T00:05:13.170Z,5.5
2018-09-04T00:06:12.095Z,5.2
2018-09-04T00:07:13.938Z,26.1
2018-09-04T00:09:12.407Z,5.1
2018-09-04T00:10:13.349Z,4.6
2018-09-04T00:13:11.803Z,4.9
2018-09-04T00:14:12.555Z,5.0
2018-09-04T00:15:13.036Z,5.1
2018-09-04T00:17:13.124Z,5.1
2018-09-04T00:19:11.889Z,5.3
2018-09-04T00:20:23.237Z,5.0
2018-09-04T00:21:15.201Z,5.2
2018-09-04T00:22:15.672Z,5.4
2018-09-04T00:23:11.774Z,4.6
2018-09-04T00:24:11.918Z,4.8
2018-09-04T00:26:31.939Z,4.9
2018-09-04T00:27:22.751Z,5.3
2018-09-04T00:28:17.849Z,5.2
2018-09-04T00:29:13.386Z,4.6
2018-09-04T00:30:11.808Z,5.0
2018-09-04T00:31:21.875Z,4.9
2018-09-04T00:32:11.744Z,4.7
2018-09-04T00:33:11.796Z,5.0
2018-09-04T00:35:11.715Z,4.8
2018-09-04T00:36:12.113Z,5.1
2018-09-04T00:37:11.975Z,5.5
2018-09-04T00:38:11.746Z,5.1
2018-09-04T00:39:11.668Z,5.0
2018-09-04T00:41:11.775Z,4.7
2018-09-04T00:42:11.823Z,5.1
2018-09-04T00:43:18.768Z,5.1
2018-09-04T00:44:28.633Z,5.0
2018-09-04T00:45:35.891Z,4.9
2018-09-04T00:46:30.657Z,4.8
2018-09-04T00:47:18.370Z,5.0
2018-09-04T00:48:16.850Z,5.0
2018-09-04T00:49:11.833Z,4.7
2018-09-04T01:00:55.002Z,4.8
2018-09-04T01:01:19.720Z,4.8
2018-09-04T01:02:23.895Z,4.9
2018-09-04T01:04:18.648Z,4.9
2018-09-04T01:05:48.114Z,5.0
2018-09-04T01:09:02.066Z,4.5
2018-09-04T01:10:47.809Z,5.5
2018-09-04T01:11:17.011Z,4.6
2018-09-04T01:12:22.792Z,5.8
2018-09-04T01:13:18.859Z,4.7
2018-09-04T01:14:28.327Z,4.9
2018-09-04T01:19:41.003Z,5.2
2018-09-04T01:21:40.376Z,5.6
2018-09-04T01:23:42.199Z,5.6
2018-09-04T01:25:57.365Z,6.3
2018-09-04T01:26:31.248Z,6.1
2018-09-04T01:27:14.294Z,6.1
2018-09-04T01:29:24.109Z,5.6
2018-09-04T01:32:00.195Z,6.0
2018-09-04T01:32:50.602Z,6.6
2018-09-04T01:34:43.430Z,6.0
2018-09-04T01:35:50.316Z,6.0
2018-09-04T01:36:40.163Z,6.4
2018-09-04T01:37:49.590Z,6.5
2018-09-04T01:38:59.261Z,6.0
2018-09-04T01:40:52.942Z,6.3
2018-09-04T01:41:52.180Z,5.9
2018-09-04T01:42:51.743Z,7.0
2018-09-04T01:43:52.682Z,6.3
2018-09-04T01:44:51.705Z,6.8
2018-09-04T01:45:51.647Z,6.7
2018-09-04T01:46:52.514Z,6.3
2018-09-04T01:48:51.824Z,6.4
2018-09-04T01:49:51.691Z,6.1
2018-09-04T01:50:51.749Z,6.1
2018-09-04T01:51:51.681Z,6.4
2018-09-04T01:52:51.993Z,6.0
2018-09-04T01:53:52.050Z,5.9
2018-09-04T01:54:52.436Z,6.2
2018-09-04T01:55:51.747Z,6.3
2018-09-04T01:56:51.731Z,5.9
2018-09-04T01:57:51.705Z,5.8
2018-09-04T02:13:25.483Z,5.5
2018-09-04T02:14:25.347Z,5.6
2018-09-04T02:15:25.650Z,5.7
2018-09-04T02:16:25.700Z,19.4
2018-09-04T02:17:25.417Z,5.3
2018-09-04T02:18:25.506Z,5.5
2018-09-04T02:19:25.382Z,5.4
2018-09-04T02:20:25.948Z,5.0
2018-09-04T02:21:25.461Z,5.2
2018-09-04T02:22:25.513Z,5.3
2018-09-04T02:23:53.779Z,5.3
2018-09-04T02:25:01.177Z,5.2
2018-09-04T02:25:59.105Z,5.3
2018-09-04T02:26:46.447Z,5.2
2018-09-04T02:27:53.383Z,5.1
2018-09-04T02:28:55.112Z,4.9
2018-09-04T02:29:53.121Z,5.2
2018-09-04T02:30:45.660Z,5.0
2018-09-04T02:32:04.836Z,5.1
2018-09-04T02:32:53.332Z,4.8
2018-09-04T02:35:57.658Z,7.0
2018-09-04T02:36:54.020Z,5.0
2018-09-04T02:38:07.383Z,5.5
2018-09-04T02:38:44.291Z,5.1
2018-09-04T02:41:50.579Z,4.9
2018-09-04T02:43:31.089Z,4.9
2018-09-04T02:44:22.557Z,4.9
2018-09-04T02:45:44.118Z,5.1
2018-09-04T02:47:02.931Z,4.9
2018-09-04T02:48:07.087Z,4.7
2018-09-04T02:49:07.129Z,4.6
2018-09-04T02:50:16.483Z,5.0
2018-09-04T02:51:02.832Z,5.1
2018-09-04T02:53:28.590Z,4.8
2018-09-04T02:54:16.713Z,5.0
2018-09-04T02:55:12.279Z,5.0
2018-09-04T02:57:03.497Z,4.5
2018-09-04T02:59:20.122Z,4.6
2018-09-04T03:00:22.634Z,5.0
2018-09-04T03:01:31.462Z,5.1
2018-09-04T03:02:05.356Z,5.0
2018-09-04T03:07:15.856Z,5.2
2018-09-04T03:08:26.408Z,4.9
2018-09-04T03:09:51.987Z,4.7
2018-09-04T03:10:41.569Z,5.2
2018-09-04T03:11:19.750Z,4.7
2018-09-04T03:12:49.296Z,5.1
2018-09-04T03:13:28.996Z,5.3
2018-09-04T03:15:10.597Z,4.9
2018-09-04T03:18:30.960Z,5.1
2018-09-04T03:19:05.444Z,5.0
2018-09-04T03:21:08.309Z,4.7
2018-09-04T03:22:52.568Z,4.9
2018-09-04T03:24:06.753Z,4.9
2018-09-04T03:25:08.988Z,4.9
2018-09-04T03:26:09.327Z,5.2
2018-09-04T03:27:29.839Z,5.3
2018-09-04T03:38:45.947Z,4.9
2018-09-04T03:39:46.100Z,4.3
2018-09-04T03:40:44.931Z,5.0
2018-09-04T03:42:45.553Z,4.8
2018-09-04T03:43:46.603Z,4.4
2018-09-04T03:44:46.318Z,4.4
2018-09-04T03:45:44.208Z,3.9
2018-09-04T03:46:44.627Z,4.2
2018-09-04T03:47:44.652Z,3.9
2018-09-04T03:59:44.484Z,3.7
2018-09-04T04:00:46.180Z,3.9
2018-09-04T04:01:46.070Z,3.5
2018-09-04T04:02:43.902Z,3.8
2018-09-04T04:03:44.124Z,3.7
2018-09-04T04:04:44.948Z,4.0
2018-09-04T04:05:45.317Z,3.8
2018-09-04T04:06:48.328Z,4.3
2018-09-04T04:07:44.675Z,4.2
2018-09-04T04:08:44.470Z,4.0
2018-09-04T04:11:25.407Z,3.9
2018-09-04T04:11:52.154Z,3.8
2018-09-04T04:12:52.860Z,4.2
2018-09-04T04:13:52.896Z,3.9
2018-09-04T04:14:52.870Z,3.8
2018-09-04T04:15:52.878Z,4.0
2018-09-04T04:16:52.848Z,4.1
2018-09-04T04:17:55.229Z,3.8
2018-09-04T04:18:53.126Z,4.2
2018-09-04T04:19:52.929Z,3.9
2018-09-04T04:22:05.755Z,3.9
2018-09-04T04:23:05.456Z,3.9
2018-09-04T04:24:05.470Z,3.6
2018-09-04T04:25:05.523Z,4.0
2018-09-04T04:26:05.714Z,3.6
2018-09-04T04:27:05.548Z,3.8
2018-09-04T04:28:05.520Z,3.8
2018-09-04T04:29:05.709Z,4.0
2018-09-04T04:30:05.533Z,3.8
2018-09-04T04:31:05.534Z,3.9
2018-09-04T04:32:07.617Z,3.9
2018-09-04T04:33:05.691Z,4.0
2018-09-04T04:34:05.615Z,4.0
2018-09-04T04:35:05.529Z,3.9
2018-09-04T04:36:06.440Z,3.9
2018-09-04T04:37:05.469Z,4.2
2018-09-04T04:38:10.409Z,4.2
2018-09-04T04:41:12.911Z,4.5
2018-09-04T04:42:11.998Z,6.3
2018-09-04T04:43:11.129Z,5.4
2018-09-04T04:44:18.927Z,6.0
2018-09-04T04:45:06.333Z,5.6
2018-09-04T04:46:06.291Z,4.4
2018-09-04T04:47:11.159Z,4.9
2018-09-04T04:48:07.424Z,5.5
2018-09-04T04:49:08.330Z,4.8
2018-09-04T04:50:13.989Z,4.3
2018-09-04T04:51:05.650Z,5.0
2018-09-04T04:52:06.845Z,3.7
2018-09-04T04:54:21.312Z,4.4
2018-09-04T04:56:13.029Z,3.7
2018-09-04T04:57:08.557Z,4.1
2018-09-04T04:58:06.391Z,4.3
2018-09-04T05:00:10.496Z,3.3
2018-09-04T05:01:06.221Z,3.6
2018-09-04T05:02:11.435Z,4.0
2018-09-04T05:03:05.926Z,3.7
2018-09-04T05:04:05.942Z,4.0
2018-09-04T05:05:05.693Z,5.9
2018-09-04T05:06:05.878Z,3.2
2018-09-04T05:07:05.924Z,4.0
2018-09-04T05:09:05.890Z,4.0
2018-09-04T05:21:13.167Z,3.1
2018-09-04T05:22:12.318Z,4.2
2018-09-04T05:23:13.280Z,4.7
2018-09-04T05:24:12.399Z,4.0
2018-09-04T05:25:14.877Z,4.0
2018-09-04T05:26:17.449Z,9.3
2018-09-04T05:27:12.667Z,12.0
2018-09-04T05:28:11.988Z,11.3
2018-09-04T05:29:12.945Z,11.0
2018-09-04T05:30:11.981Z,12.1
2018-09-04T05:32:04.780Z,10.4
2018-09-04T05:32:13.098Z,9.8
2018-09-04T05:33:13.806Z,8.0
2018-09-04T05:34:13.162Z,7.6
2018-09-04T05:36:13.198Z,8.0
2018-09-04T05:37:13.557Z,10.2
2018-09-04T05:38:13.236Z,9.8
2018-09-04T05:39:13.507Z,9.3
2018-09-04T05:40:13.282Z,7.9
2018-09-04T05:42:23.434Z,8.4
2018-09-04T05:43:38.541Z,8.7
2018-09-04T05:44:37.909Z,9.8
2018-09-04T05:45:37.952Z,8.1
2018-09-04T05:46:37.945Z,6.0
2018-09-04T05:47:37.942Z,6.7
2018-09-04T05:48:37.922Z,5.8
2018-09-04T05:49:38.187Z,6.7
2018-09-04T05:50:38.484Z,4.8
2018-09-04T05:51:37.913Z,4.3
2018-09-04T05:52:39.373Z,4.2
2018-09-04T05:53:37.900Z,3.5
2018-09-04T05:54:38.207Z,3.6
2018-09-04T05:55:39.079Z,3.5
2018-09-04T05:56:38.578Z,4.5
2018-09-04T05:57:38.313Z,3.6
2018-09-04T05:58:37.950Z,3.9
2018-09-04T05:59:37.988Z,3.5
2018-09-04T06:00:37.938Z,4.7
2018-09-04T06:01:39.601Z,4.6
2018-09-04T06:09:10.846Z,3.2
2018-09-04T06:09:24.547Z,3.2
2018-09-04T06:10:25.600Z,3.1
2018-09-04T06:11:25.855Z,3.1
2018-09-04T06:12:25.572Z,3.9
2018-09-04T06:13:25.622Z,3.2
2018-09-04T06:14:25.615Z,3.1
2018-09-04T06:15:25.602Z,2.9
2018-09-04T06:16:25.604Z,3.3
2018-09-04T06:17:26.166Z,3.6
2018-09-04T06:18:25.599Z,3.1
2018-09-04T06:19:25.566Z,3.2
2018-09-04T06:20:25.604Z,3.3
2018-09-04T06:21:25.719Z,3.6
2018-09-04T06:22:25.959Z,3.1
2018-09-04T06:23:26.298Z,4.1
2018-09-04T06:24:25.614Z,3.0
2018-09-04T06:25:25.593Z,3.0
2018-09-04T06:26:25.629Z,3.0
2018-09-04T06:29:34.872Z,3.0
2018-09-04T06:30:36.070Z,3.4
2018-09-04T06:31:35.840Z,3.2
2018-09-04T06:32:36.564Z,3.0
2018-09-04T06:33:35.863Z,3.4
2018-09-04T06:34:35.848Z,3.9
2018-09-04T06:35:35.820Z,3.0
2018-09-04T06:36:35.922Z,3.1
2018-09-04T06:37:36.157Z,3.0
2018-09-04T06:38:35.871Z,3.4
2018-09-04T06:39:37.974Z,3.4
2018-09-04T06:40:35.799Z,3.1
2018-09-04T06:41:35.842Z,2.8
2018-09-04T06:42:35.803Z,3.2
2018-09-04T06:43:35.868Z,3.2
2018-09-04T06:44:35.848Z,3.1
2018-09-04T06:45:35.854Z,3.0
2018-09-04T06:46:35.873Z,3.0
2018-09-04T06:47:35.825Z,3.3
2018-09-04T06:48:35.895Z,3.0
2018-09-04T06:50:04.282Z,3.5
2018-09-04T06:50:36.097Z,3.3
2018-09-04T06:51:36.588Z,3.4
2018-09-04T06:52:35.813Z,3.3
2018-09-04T06:53:35.879Z,3.9
2018-09-04T06:54:36.193Z,3.7
2018-09-04T06:55:35.843Z,3.2
2018-09-04T06:56:36.204Z,3.3
2018-09-04T06:57:36.158Z,3.3
2018-09-04T06:58:35.855Z,3.3
2018-09-04T06:59:36.131Z,3.2
2018-09-04T07:01:48.425Z,3.5
2018-09-04T07:02:48.353Z,3.2
2018-09-04T07:04:48.386Z,3.3
2018-09-04T07:05:48.376Z,3.3
2018-09-04T07:06:48.374Z,3.5
2018-09-04T07:07:49.451Z,3.5
2018-09-04T07:08:48.416Z,3.4
2018-09-04T07:09:48.367Z,3.3
2018-09-04T07:10:48.375Z,4.2
2018-09-04T07:11:51.373Z,3.5
2018-09-04T07:12:48.436Z,3.5
2018-09-04T07:13:48.424Z,3.7
2018-09-04T07:14:48.636Z,3.7
2018-09-04T07:15:48.619Z,3.9
2018-09-04T07:16:48.958Z,3.9
2018-09-04T07:17:48.437Z,4.0
2018-09-04T07:18:48.418Z,4.2
2018-09-04T07:19:48.423Z,4.1
2018-09-04T07:20:49.092Z,3.8
2018-09-04T07:21:58.807Z,4.2
2018-09-04T07:22:49.224Z,3.8
2018-09-04T07:23:48.430Z,4.0
2018-09-04T07:24:49.151Z,4.1
2018-09-04T07:25:48.408Z,4.1
2018-09-04T07:26:48.717Z,3.8
2018-09-04T07:27:48.485Z,4.2
2018-09-04T07:28:48.425Z,4.2
2018-09-04T07:29:48.407Z,4.1
2018-09-04T07:30:48.504Z,4.4
2018-09-04T07:31:48.529Z,4.3
2018-09-04T07:32:48.710Z,4.4
2018-09-04T07:33:48.452Z,4.4
2018-09-04T07:34:49.580Z,4.1
2018-09-04T07:35:48.783Z,4.5
2018-09-04T07:36:48.445Z,4.1
2018-09-04T07:37:48.735Z,4.5
2018-09-04T07:38:48.534Z,4.1
2018-09-04T07:40:49.132Z,4.2
2018-09-04T07:41:48.480Z,4.4
2018-09-04T07:43:48.470Z,4.5
2018-09-04T07:44:48.463Z,4.6
2018-09-04T07:45:48.713Z,5.6
2018-09-04T07:47:48.493Z,4.7
2018-09-04T07:48:48.752Z,4.8
2018-09-04T07:49:48.477Z,4.4
2018-09-04T08:01:48.021Z,4.7
2018-09-04T08:02:48.362Z,5.2
2018-09-04T08:03:48.074Z,4.7
2018-09-04T08:04:48.296Z,4.9
2018-09-04T08:05:48.065Z,5.0
2018-09-04T08:06:48.132Z,4.8
2018-09-04T08:07:48.613Z,4.7
2018-09-04T08:08:48.802Z,5.1
2018-09-04T08:09:48.116Z,6.2
2018-09-04T08:10:48.062Z,5.2
2018-09-04T08:21:34.524Z,5.1
2018-09-04T08:22:34.831Z,5.2
2018-09-04T08:23:34.552Z,5.6
2018-09-04T08:24:34.497Z,5.6
2018-09-04T08:25:34.506Z,5.3
2018-09-04T08:26:34.806Z,5.4
2018-09-04T08:27:34.527Z,5.4
2018-09-04T08:28:34.501Z,5.5
2018-09-04T08:29:34.569Z,6.2
2018-09-04T08:30:34.508Z,5.3
2018-09-04T08:32:47.145Z,5.6
2018-09-04T08:33:47.114Z,5.4
2018-09-04T08:34:47.163Z,5.6
2018-09-04T08:35:47.121Z,5.5
2018-09-04T08:36:47.116Z,5.4
2018-09-04T08:37:47.164Z,5.6
2018-09-04T08:38:47.373Z,5.4
2018-09-04T08:39:47.098Z,5.7
2018-09-04T08:40:47.129Z,5.2
2018-09-04T08:41:47.359Z,5.3
2018-09-04T08:42:57.499Z,5.4
2018-09-04T08:43:47.063Z,5.6
2018-09-04T08:44:47.113Z,5.1
2018-09-04T08:45:47.355Z,5.3
2018-09-04T08:46:47.357Z,5.4
2018-09-04T08:47:47.211Z,5.6
2018-09-04T08:48:47.083Z,5.3
2018-09-04T08:49:47.342Z,5.6
2018-09-04T08:50:47.182Z,5.4
2018-09-04T08:51:47.387Z,5.2
2018-09-04T08:52:47.127Z,5.3
2018-09-04T08:53:47.318Z,5.0
2018-09-04T08:54:47.045Z,5.5
2018-09-04T08:55:47.435Z,5.0
2018-09-04T08:56:47.352Z,8.7
2018-09-04T08:57:47.340Z,5.9
2018-09-04T08:58:47.747Z,5.8
2018-09-04T08:59:47.085Z,5.6
2018-09-04T09:00:47.149Z,5.5
2018-09-04T09:11:39.437Z,5.7
2018-09-04T09:12:39.844Z,5.8
2018-09-04T09:13:39.845Z,6.1
2018-09-04T09:14:40.069Z,5.5
2018-09-04T09:15:40.060Z,6.1
2018-09-04T09:16:39.967Z,6.0
2018-09-04T09:17:40.098Z,5.5
2018-09-04T09:18:39.848Z,5.9
2018-09-04T09:19:39.837Z,5.9
2018-09-04T09:20:40.567Z,5.7
2018-09-04T09:21:40.980Z,7.0
2018-09-04T09:22:39.862Z,5.7
2018-09-04T09:23:39.897Z,5.3
2018-09-04T09:24:39.831Z,5.9
2018-09-04T09:25:39.797Z,5.9
2018-09-04T09:26:39.867Z,5.4
2018-09-04T09:27:39.869Z,5.7
2018-09-04T09:28:40.827Z,5.7
2018-09-04T09:29:40.137Z,6.1
2018-09-04T09:30:39.884Z,5.4
2018-09-04T09:41:31.560Z,5.2
2018-09-04T09:42:31.482Z,5.1
2018-09-04T09:43:32.246Z,5.5
2018-09-04T09:44:31.488Z,5.3
2018-09-04T09:45:31.480Z,5.3
2018-09-04T09:46:31.768Z,5.3
2018-09-04T09:47:31.503Z,5.2
2018-09-04T09:48:31.491Z,5.0
2018-09-04T09:49:31.526Z,5.0
2018-09-04T09:50:31.497Z,5.2
2018-09-04T09:51:31.508Z,4.6
2018-09-04T09:52:31.567Z,5.3
2018-09-04T09:53:31.541Z,5.1
2018-09-04T09:54:31.795Z,5.1
2018-09-04T09:55:31.515Z,4.9
2018-09-04T09:56:31.640Z,5.1
2018-09-04T09:57:31.598Z,5.3
2018-09-04T09:58:31.731Z,5.0
2018-09-04T09:59:32.125Z,4.8
2018-09-04T10:00:31.486Z,4.7
2018-09-04T10:01:31.818Z,5.0
2018-09-04T10:02:31.497Z,4.7
2018-09-04T10:03:31.481Z,4.7
2018-09-04T10:04:31.550Z,4.8
2018-09-04T10:05:32.397Z,4.6
2018-09-04T10:06:31.789Z,4.9
2018-09-04T10:07:41.871Z,4.5
2018-09-04T10:08:31.776Z,5.0
2018-09-04T10:09:31.502Z,4.7
2018-09-04T10:10:31.597Z,4.9
2018-09-04T10:11:31.562Z,4.7
2018-09-04T10:12:31.504Z,5.0
2018-09-04T10:13:31.541Z,5.0
2018-09-04T10:14:31.604Z,5.0
2018-09-04T10:15:31.500Z,4.7
2018-09-04T10:16:31.547Z,4.8
2018-09-04T10:17:31.526Z,5.7
2018-09-04T10:18:31.529Z,4.8
2018-09-04T10:19:31.616Z,4.5
2018-09-04T10:20:31.777Z,4.5
2018-09-04T10:21:31.512Z,4.5
2018-09-04T10:22:31.548Z,4.6
2018-09-04T10:23:31.545Z,4.8
2018-09-04T10:24:31.911Z,5.0
2018-09-04T10:25:31.778Z,4.7
2018-09-04T10:26:31.639Z,4.8
2018-09-04T10:27:31.784Z,4.7
2018-09-04T10:28:31.565Z,4.6
2018-09-04T10:29:31.544Z,4.6
2018-09-04T10:30:31.552Z,4.6
2018-09-04T10:31:31.532Z,4.7
2018-09-04T10:32:31.497Z,4.9
2018-09-04T10:33:31.538Z,4.9
2018-09-04T10:34:31.560Z,5.0
2018-09-04T10:35:31.537Z,4.9
2018-09-04T10:36:31.862Z,4.6
2018-09-04T10:37:31.644Z,4.8
2018-09-04T10:38:31.823Z,4.4
2018-09-04T10:39:31.841Z,4.7
2018-09-04T10:40:31.632Z,4.8
2018-09-04T10:41:31.659Z,5.2
2018-09-04T10:42:31.601Z,4.6
2018-09-04T10:43:31.581Z,4.6
2018-09-04T10:44:31.607Z,5.1
2018-09-04T10:45:31.546Z,4.6
2018-09-04T10:46:31.808Z,5.1
2018-09-04T10:47:31.858Z,5.3
2018-09-04T10:48:31.551Z,5.0
2018-09-04T10:49:31.628Z,5.1
2018-09-04T10:50:31.606Z,4.8
2018-09-04T10:51:32.923Z,4.9
2018-09-04T10:52:31.860Z,5.0
2018-09-04T10:53:31.609Z,5.0
2018-09-04T10:54:31.912Z,5.3
2018-09-04T10:55:31.615Z,4.8
2018-09-04T10:56:31.572Z,4.8
2018-09-04T10:58:31.598Z,5.2
2018-09-04T10:59:31.867Z,4.9
2018-09-04T11:00:32.580Z,4.7
2018-09-04T11:01:31.696Z,4.8
2018-09-04T11:02:32.267Z,4.5
2018-09-04T11:03:31.608Z,4.9
2018-09-04T11:04:31.581Z,5.1
2018-09-04T11:05:31.662Z,4.8
2018-09-04T11:06:31.624Z,4.8
2018-09-04T11:07:31.651Z,5.4
2018-09-04T11:08:31.572Z,4.9
2018-09-04T11:09:31.899Z,5.0
2018-09-04T11:10:31.759Z,5.2
2018-09-04T11:11:31.933Z,4.7
2018-09-04T11:22:21.101Z,4.9
2018-09-04T11:23:20.024Z,5.0
2018-09-04T11:24:19.962Z,5.2
2018-09-04T11:25:20.016Z,5.5
2018-09-04T11:26:19.976Z,5.1
2018-09-04T11:27:20.561Z,4.9
2018-09-04T11:28:20.012Z,5.5
2018-09-04T11:29:20.001Z,5.1
2018-09-04T11:30:20.002Z,5.1
2018-09-04T11:31:20.045Z,5.1
2018-09-04T11:32:30.116Z,5.2
2018-09-04T11:33:19.991Z,5.2
2018-09-04T11:34:20.027Z,5.3
2018-09-04T11:35:20.064Z,5.5
2018-09-04T11:36:19.992Z,5.1
2018-09-04T11:37:20.019Z,5.1
2018-09-04T11:39:20.022Z,5.2
2018-09-04T11:40:20.316Z,4.9
2018-09-04T11:41:20.020Z,5.1
2018-09-04T11:42:20.045Z,5.0
2018-09-04T11:43:20.005Z,5.1
2018-09-04T11:44:20.012Z,5.5
2018-09-04T11:45:20.332Z,5.0
2018-09-04T11:46:20.024Z,5.4
2018-09-04T11:47:20.007Z,5.2
2018-09-04T11:48:20.029Z,5.3
2018-09-04T11:49:20.007Z,5.1
2018-09-04T11:50:20.023Z,5.5
2018-09-04T11:51:19.991Z,5.4
2018-09-04T11:52:20.048Z,5.3
2018-09-04T11:53:20.302Z,5.6
2018-09-04T11:54:20.053Z,5.4
2018-09-04T11:55:20.356Z,5.7
2018-09-04T11:56:20.631Z,5.8
2018-09-04T11:57:20.321Z,5.2
2018-09-04T11:58:20.092Z,5.7
2018-09-04T11:59:20.383Z,5.2
2018-09-04T12:00:20.054Z,5.7
2018-09-04T12:11:13.116Z,6.0
2018-09-04T12:12:12.983Z,6.0
2018-09-04T12:13:13.379Z,5.9
2018-09-04T12:14:13.533Z,5.9
2018-09-04T12:15:12.908Z,6.2
2018-09-04T12:16:12.957Z,5.8
2018-09-04T12:17:12.956Z,5.8
2018-09-04T12:18:12.929Z,6.3
2018-09-04T12:19:13.074Z,5.9
2018-09-04T12:20:12.957Z,5.7
2018-09-04T12:22:25.816Z,5.8
2018-09-04T12:23:25.802Z,5.9
2018-09-04T12:24:25.829Z,5.9
2018-09-04T12:25:25.836Z,5.8
2018-09-04T12:26:25.832Z,6.0
2018-09-04T12:27:25.831Z,5.9
2018-09-04T12:28:25.852Z,5.8
2018-09-04T12:29:25.846Z,6.7
2018-09-04T12:30:25.785Z,6.4
2018-09-04T12:31:25.856Z,6.0
2018-09-04T12:33:18.297Z,6.1
2018-09-04T12:33:26.897Z,6.3
2018-09-04T12:34:26.632Z,6.0
2018-09-04T12:35:27.416Z,6.1
2018-09-04T12:36:27.215Z,6.2
2018-09-04T12:37:26.690Z,6.6
2018-09-04T12:38:26.628Z,6.2
2018-09-04T12:39:26.678Z,6.3
2018-09-04T12:40:26.869Z,6.3
2018-09-04T12:41:26.920Z,6.5
2018-09-04T12:42:26.697Z,6.3
2018-09-04T12:44:41.243Z,6.4
2018-09-04T12:45:39.763Z,6.2
2018-09-04T12:46:40.772Z,6.6
2018-09-04T12:47:39.806Z,6.8
2018-09-04T12:48:40.015Z,6.6
2018-09-04T12:49:40.120Z,6.8
2018-09-04T12:50:39.808Z,6.5
2018-09-04T12:51:39.856Z,6.8
2018-09-04T12:52:39.789Z,6.6
2018-09-04T12:53:39.798Z,6.1
2018-09-04T13:04:36.215Z,6.8
2018-09-04T13:05:37.521Z,7.0
2018-09-04T13:06:37.264Z,6.8
2018-09-04T13:07:37.273Z,6.4
2018-09-04T13:08:37.472Z,6.8
2018-09-04T13:09:37.195Z,7.0
2018-09-04T13:10:37.536Z,6.7
2018-09-04T13:11:37.362Z,7.3
2018-09-04T13:12:37.261Z,7.2
2018-09-04T13:14:50.560Z,7.1
2018-09-04T13:15:49.953Z,6.9
2018-09-04T13:16:49.966Z,6.9
2018-09-04T13:17:49.962Z,6.9
2018-09-04T13:18:49.901Z,6.9
2018-09-04T13:19:49.855Z,7.4
2018-09-04T13:20:49.878Z,7.0
2018-09-04T13:21:49.944Z,6.7
2018-09-04T13:22:50.547Z,7.3
2018-09-04T13:24:17.815Z,7.3
2018-09-04T13:25:09.374Z,7.8
2018-09-04T13:26:02.423Z,22.5
2018-09-04T13:26:52.819Z,34.1
2018-09-04T13:27:51.890Z,23.5
2018-09-04T13:28:50.767Z,17.5
2018-09-04T13:29:51.461Z,15.5
2018-09-04T13:30:54.009Z,19.5
2018-09-04T13:31:50.553Z,15.2
2018-09-04T13:34:33.970Z,17.7
2018-09-04T13:37:49.968Z,16.5
2018-09-04T13:39:02.553Z,15.3
2018-09-04T13:39:32.362Z,18.6
2018-09-04T13:41:33.806Z,16.1
2018-09-04T13:44:19.315Z,16.0
2018-09-04T13:45:14.431Z,16.4
2018-09-04T13:47:09.532Z,15.6
2018-09-04T13:48:22.986Z,17.5
2018-09-04T13:50:21.558Z,19.7
2018-09-04T13:51:11.770Z,18.2
2018-09-04T13:51:43.347Z,17.8
2018-09-04T13:52:40.139Z,18.7
2018-09-04T13:53:36.028Z,17.1
2018-09-04T13:54:36.181Z,16.3
2018-09-04T13:55:35.915Z,17.3
2018-09-04T13:56:37.717Z,17.5
2018-09-04T13:57:36.280Z,18.4
2018-09-04T13:58:35.881Z,19.4
2018-09-04T13:59:35.884Z,18.5
2018-09-04T14:00:38.814Z,19.0
2018-09-04T14:01:35.879Z,18.8
2018-09-04T14:02:36.316Z,18.4
2018-09-04T14:03:37.910Z,18.4
2018-09-04T14:04:35.904Z,18.5
2018-09-04T14:05:42.051Z,19.1
2018-09-04T14:06:35.812Z,18.3
2018-09-04T14:07:35.941Z,19.4
2018-09-04T14:08:35.897Z,18.2
2018-09-04T14:11:38.843Z,19.3
2018-09-04T14:11:47.467Z,19.3
2018-09-04T14:12:59.084Z,19.4
2018-09-04T14:15:19.829Z,18.6
2018-09-04T14:15:51.919Z,18.8
2018-09-04T14:16:47.946Z,19.0
2018-09-04T14:17:47.771Z,20.0
2018-09-04T14:18:48.396Z,19.0
2018-09-04T14:21:04.280Z,18.8
2018-09-04T14:23:32.685Z,18.8
2018-09-04T14:24:21.711Z,18.1
2018-09-04T14:26:00.635Z,18.7
2018-09-04T14:26:18.158Z,18.9
2018-09-04T14:27:22.352Z,18.8
2018-09-04T14:29:53.153Z,17.9
2018-09-04T14:34:36.818Z,20.0
2018-09-04T14:36:37.175Z,19.9
2018-09-04T14:38:50.433Z,19.9
2018-09-04T14:40:35.162Z,17.1
2018-09-04T14:42:07.610Z,18.1
2018-09-04T14:53:38.776Z,16.6
2018-09-04T14:54:39.742Z,16.3
2018-09-04T14:56:25.275Z,21.5
2018-09-04T14:56:39.082Z,15.9
2018-09-04T14:58:37.252Z,15.8
2018-09-04T14:59:32.346Z,15.8
2018-09-04T15:00:33.670Z,15.4
2018-09-04T15:01:23.111Z,15.6
2018-09-04T15:02:05.266Z,15.2
2018-09-04T15:03:07.742Z,15.0
2018-09-04T15:04:05.939Z,15.0
2018-09-04T15:04:56.929Z,15.0
2018-09-04T15:07:00.777Z,15.2
2018-09-04T15:08:04.339Z,14.2
2018-09-04T15:08:54.736Z,14.5
2018-09-04T15:09:55.029Z,13.6
2018-09-04T15:10:59.128Z,14.4
2018-09-04T15:12:11.506Z,14.7
2018-09-04T15:13:00.134Z,14.3
2018-09-04T15:15:32.553Z,14.6
2018-09-04T15:16:05.892Z,14.6
2018-09-04T15:17:09.681Z,14.1
2018-09-04T15:18:16.775Z,14.2
2018-09-04T15:19:21.638Z,13.7
2018-09-04T15:20:10.853Z,14.3
2018-09-04T15:21:24.168Z,13.6
2018-09-04T15:22:11.870Z,13.9
2018-09-04T15:27:00.164Z,13.7
2018-09-04T15:27:28.909Z,13.1
2018-09-04T15:28:56.732Z,13.8
2018-09-04T15:29:44.274Z,13.4
2018-09-04T15:30:53.021Z,13.7
2018-09-04T15:31:43.757Z,13.6
2018-09-04T15:34:07.892Z,13.7
2018-09-04T15:35:16.154Z,13.2
2018-09-04T15:48:41.109Z,13.4
2018-09-04T15:49:43.817Z,13.0
2018-09-04T15:52:00.325Z,13.3
2018-09-04T15:54:05.369Z,13.2
2018-09-04T15:55:26.943Z,12.9
2018-09-04T15:57:12.249Z,13.4
2018-09-04T15:58:32.418Z,13.3
2018-09-04T16:00:03.072Z,12.8
2018-09-04T16:01:35.503Z,13.0
2018-09-04T16:02:43.544Z,12.7
2018-09-04T16:04:02.588Z,13.1
2018-09-04T16:05:26.623Z,13.0
2018-09-04T16:09:25.054Z,13.4
2018-09-04T16:10:49.135Z,34.7
2018-09-04T16:12:08.669Z,12.4
2018-09-04T16:13:32.168Z,12.4
2018-09-04T16:14:42.692Z,12.4
2018-09-04T16:15:56.870Z,12.4
2018-09-04T16:17:20.356Z,12.8
2018-09-04T16:18:30.492Z,13.6
2018-09-04T16:19:52.994Z,13.3
2018-09-04T16:22:29.617Z,12.7
2018-09-04T16:24:31.387Z,12.9
2018-09-04T16:27:08.560Z,12.9
2018-09-04T16:28:32.179Z,12.4
2018-09-04T16:30:52.978Z,12.7
2018-09-04T16:32:22.557Z,12.5
2018-09-04T16:33:42.695Z,13.5
2018-09-04T16:45:09.395Z,12.7
2018-09-04T16:46:32.069Z,12.6
2018-09-04T16:47:57.385Z,12.1
2018-09-04T16:49:28.215Z,12.4
2018-09-04T16:50:48.869Z,12.6
2018-09-04T16:52:38.914Z,13.3
2018-09-04T16:54:41.389Z,12.9
2018-09-04T16:56:30.315Z,12.7
2018-09-04T16:58:55.840Z,13.0
2018-09-04T17:00:14.102Z,12.8
2018-09-04T17:02:10.130Z,12.2
2018-09-04T17:03:54.463Z,12.2
2018-09-04T17:05:12.159Z,13.2
2018-09-04T17:06:32.526Z,13.2
2018-09-04T17:07:59.686Z,12.9
2018-09-04T17:10:07.954Z,13.2
2018-09-04T17:11:37.295Z,13.3
2018-09-04T17:15:34.366Z,12.9
2018-09-04T17:17:04.225Z,12.9
2018-09-04T17:18:41.672Z,12.9
2018-09-04T17:19:59.530Z,13.0
2018-09-04T17:22:17.754Z,37.4
2018-09-04T17:26:40.829Z,12.8
2018-09-04T17:28:44.134Z,13.7
2018-09-04T17:30:23.571Z,14.3
2018-09-04T17:31:58.881Z,13.2
2018-09-04T17:33:36.866Z,13.1
2018-09-04T17:44:54.760Z,13.3
2018-09-04T17:45:44.885Z,13.6
2018-09-04T17:46:53.632Z,13.6
2018-09-04T17:47:51.652Z,13.3
2018-09-04T17:48:58.412Z,13.0
2018-09-04T17:49:46.577Z,13.2
2018-09-04T17:50:50.438Z,13.3
2018-09-04T17:51:44.184Z,13.8
2018-09-04T17:52:48.893Z,13.0
2018-09-04T18:08:06.336Z,13.5
2018-09-04T18:08:54.975Z,13.0
2018-09-04T18:09:56.548Z,13.5
2018-09-04T18:11:18.113Z,13.1
2018-09-04T18:12:17.979Z,13.4
2018-09-04T18:12:59.464Z,13.5
2018-09-04T18:14:18.906Z,14.1
2018-09-04T18:19:27.319Z,12.9
2018-09-04T18:20:33.561Z,12.9
2018-09-04T18:23:00.625Z,14.1
2018-09-04T18:24:19.482Z,13.7
2018-09-04T18:25:20.950Z,14.0
2018-09-04T18:28:07.710Z,13.6
2018-09-04T18:29:57.236Z,13.8
2018-09-04T18:31:17.640Z,13.8
2018-09-04T18:32:29.602Z,14.1
2018-09-04T18:34:11.947Z,14.1
2018-09-04T18:35:40.923Z,13.7
2018-09-04T18:37:55.509Z,14.0
2018-09-04T18:39:20.934Z,14.1
2018-09-04T18:40:28.622Z,14.2
2018-09-04T18:41:39.329Z,14.2
2018-09-04T18:42:56.692Z,15.0
2018-09-04T18:45:15.840Z,13.5
2018-09-04T18:46:23.040Z,13.8
2018-09-04T18:57:45.239Z,13.6
2018-09-04T18:59:07.001Z,13.5
2018-09-04T19:01:28.118Z,12.8
2018-09-04T19:05:04.556Z,13.7
2018-09-04T19:06:08.653Z,13.8
2018-09-04T19:10:53.910Z,13.7
2018-09-04T19:12:46.802Z,13.7
2018-09-04T19:14:14.494Z,13.7
2018-09-04T19:15:37.298Z,14.0
2018-09-04T19:16:38.999Z,13.7
2018-09-04T19:17:44.536Z,14.4
2018-09-04T19:19:27.857Z,14.0
2018-09-04T19:21:06.352Z,14.0
2018-09-04T19:23:30.552Z,14.7
2018-09-04T19:25:18.672Z,14.5
2018-09-04T19:26:22.864Z,14.5
2018-09-04T19:30:21.095Z,14.7
2018-09-04T19:31:35.802Z,14.1
2018-09-04T19:32:51.976Z,13.9
2018-09-04T19:34:03.584Z,14.3
2018-09-04T19:35:37.938Z,13.9
2018-09-04T19:37:07.283Z,14.1
2018-09-04T19:39:15.960Z,14.4
2018-09-04T19:40:39.437Z,14.4
2018-09-04T19:42:08.802Z,14.1
2018-09-04T19:43:52.613Z,14.9
2018-09-04T19:46:01.185Z,13.7
2018-09-04T19:47:41.120Z,14.1
2018-09-04T19:49:00.037Z,14.0
2018-09-04T19:50:44.939Z,14.0
2018-09-04T19:53:02.508Z,13.9
2018-09-04T19:54:54.521Z,14.6
2018-09-04T19:56:26.761Z,14.0
2018-09-04T19:57:43.984Z,13.9
2018-09-04T19:59:32.926Z,13.9
2018-09-04T20:00:57.764Z,14.0